sensor_id;sensor_type;location;lat;lon;timestamp;temperature;humidity
78619;DHT22;67941;52.506;5.470;2023-12-20T00:00:37;6.50;83.70
78619;DHT22;67941;52.506;5.470;2023-12-20T00:03:06;6.50;83.50
78619;DHT22;67941;52.506;5.470;2023-12-20T00:05:35;6.40;83.40
78619;DHT22;67941;52.506;5.470;2023-12-20T00:08:06;6.40;83.50
78619;DHT22;67941;52.506;5.470;2023-12-20T00:10:35;6.30;83.40
78619;DHT22;67941;52.506;5.470;2023-12-20T00:13:04;6.20;83.40
78619;DHT22;67941;52.506;5.470;2023-12-20T00:15:33;6.20;83.50
78619;DHT22;67941;52.506;5.470;2023-12-20T00:18:05;6.20;83.70
78619;DHT22;67941;52.506;5.470;2023-12-20T00:20:34;6.20;83.80
78619;DHT22;67941;52.506;5.470;2023-12-20T00:23:03;6.10;83.70
78619;DHT22;67941;52.506;5.470;2023-12-20T00:25:33;6.10;83.70
78619;DHT22;67941;52.506;5.470;2023-12-20T00:28:03;6.10;83.70
78619;DHT22;67941;52.506;5.470;2023-12-20T00:30:32;6.10;83.80
78619;DHT22;67941;52.506;5.470;2023-12-20T00:33:02;6.10;84.00
78619;DHT22;67941;52.506;5.470;2023-12-20T00:35:33;6.10;84.30
78619;DHT22;67941;52.506;5.470;2023-12-20T00:38:02;6.20;84.60
78619;DHT22;67941;52.506;5.470;2023-12-20T00:40:32;6.30;84.60
78619;DHT22;67941;52.506;5.470;2023-12-20T00:43:01;6.40;84.40
78619;DHT22;67941;52.506;5.470;2023-12-20T00:45:30;6.40;84.20
78619;DHT22;67941;52.506;5.470;2023-12-20T00:47:59;6.40;84.10
78619;DHT22;67941;52.506;5.470;2023-12-20T00:50:28;6.40;84.00
78619;DHT22;67941;52.506;5.470;2023-12-20T00:52:59;6.40;83.90
78619;DHT22;67941;52.506;5.470;2023-12-20T00:55:28;6.40;83.80
78619;DHT22;67941;52.506;5.470;2023-12-20T00:57:57;6.40;83.80
78619;DHT22;67941;52.506;5.470;2023-12-20T01:00:26;6.40;83.70
78619;DHT22;67941;52.506;5.470;2023-12-20T01:02:55;6.30;83.70
78619;DHT22;67941;52.506;5.470;2023-12-20T01:05:23;6.30;83.90
78619;DHT22;67941;52.506;5.470;2023-12-20T01:07:52;6.40;84.10
78619;DHT22;67941;52.506;5.470;2023-12-20T01:10:24;6.40;84.00
78619;DHT22;67941;52.506;5.470;2023-12-20T01:12:54;6.40;84.00
78619;DHT22;67941;52.506;5.470;2023-12-20T01:15:22;6.40;84.20
78619;DHT22;67941;52.506;5.470;2023-12-20T01:17:51;6.50;84.20
78619;DHT22;67941;52.506;5.470;2023-12-20T01:20:22;6.60;84.30
78619;DHT22;67941;52.506;5.470;2023-12-20T01:22:51;6.60;84.30
78619;DHT22;67941;52.506;5.470;2023-12-20T01:25:22;6.70;84.30
78619;DHT22;67941;52.506;5.470;2023-12-20T01:27:51;6.70;84.10
78619;DHT22;67941;52.506;5.470;2023-12-20T01:30:20;6.70;84.00
78619;DHT22;67941;52.506;5.470;2023-12-20T01:32:50;6.80;84.00
78619;DHT22;67941;52.506;5.470;2023-12-20T01:35:19;6.80;84.00
78619;DHT22;67941;52.506;5.470;2023-12-20T01:37:47;6.80;83.90
78619;DHT22;67941;52.506;5.470;2023-12-20T01:40:16;6.80;83.90
78619;DHT22;67941;52.506;5.470;2023-12-20T01:42:48;6.80;83.80
78619;DHT22;67941;52.506;5.470;2023-12-20T01:45:26;6.80;83.80
78619;DHT22;67941;52.506;5.470;2023-12-20T01:47:55;6.80;83.90
78619;DHT22;67941;52.506;5.470;2023-12-20T01:50:24;6.80;84.10
78619;DHT22;67941;52.506;5.470;2023-12-20T01:52:54;6.80;84.10
78619;DHT22;67941;52.506;5.470;2023-12-20T01:55:24;6.90;84.00
78619;DHT22;67941;52.506;5.470;2023-12-20T01:57:56;6.90;83.90
78619;DHT22;67941;52.506;5.470;2023-12-20T02:00:27;6.90;83.90
78619;DHT22;67941;52.506;5.470;2023-12-20T02:02:57;6.90;83.90
78619;DHT22;67941;52.506;5.470;2023-12-20T02:08:32;6.90;84.10
78619;DHT22;67941;52.506;5.470;2023-12-20T02:11:01;7.00;84.10
78619;DHT22;67941;52.506;5.470;2023-12-20T02:13:33;7.00;84.00
78619;DHT22;67941;52.506;5.470;2023-12-20T02:16:02;7.00;83.70
78619;DHT22;67941;52.506;5.470;2023-12-20T02:18:32;6.90;83.60
78619;DHT22;67941;52.506;5.470;2023-12-20T02:21:03;6.90;83.60
78619;DHT22;67941;52.506;5.470;2023-12-20T02:23:50;6.90;83.80
78619;DHT22;67941;52.506;5.470;2023-12-20T02:26:18;6.90;84.00
78619;DHT22;67941;52.506;5.470;2023-12-20T02:28:47;6.90;84.10
78619;DHT22;67941;52.506;5.470;2023-12-20T02:31:16;7.00;84.00
78619;DHT22;67941;52.506;5.470;2023-12-20T02:33:45;7.00;84.00
78619;DHT22;67941;52.506;5.470;2023-12-20T02:36:14;7.00;84.00
78619;DHT22;67941;52.506;5.470;2023-12-20T02:38:43;7.00;84.00
78619;DHT22;67941;52.506;5.470;2023-12-20T02:41:15;7.00;84.00
78619;DHT22;67941;52.506;5.470;2023-12-20T02:43:44;7.20;84.10
78619;DHT22;67941;52.506;5.470;2023-12-20T02:46:14;7.20;84.00
78619;DHT22;67941;52.506;5.470;2023-12-20T02:48:44;7.20;84.00
78619;DHT22;67941;52.506;5.470;2023-12-20T02:51:13;7.20;83.90
78619;DHT22;67941;52.506;5.470;2023-12-20T02:53:42;7.20;83.80
78619;DHT22;67941;52.506;5.470;2023-12-20T02:56:11;7.20;83.80
78619;DHT22;67941;52.506;5.470;2023-12-20T02:58:42;7.20;83.80
78619;DHT22;67941;52.506;5.470;2023-12-20T03:01:11;7.20;83.70
78619;DHT22;67941;52.506;5.470;2023-12-20T03:03:40;7.30;83.70
78619;DHT22;67941;52.506;5.470;2023-12-20T03:06:09;7.20;83.70
78619;DHT22;67941;52.506;5.470;2023-12-20T03:08:38;7.20;83.70
78619;DHT22;67941;52.506;5.470;2023-12-20T03:11:07;7.20;83.70
78619;DHT22;67941;52.506;5.470;2023-12-20T03:13:36;7.20;83.60
78619;DHT22;67941;52.506;5.470;2023-12-20T03:16:11;7.30;83.50
78619;DHT22;67941;52.506;5.470;2023-12-20T03:18:42;7.20;83.50
78619;DHT22;67941;52.506;5.470;2023-12-20T03:21:10;7.20;83.30
78619;DHT22;67941;52.506;5.470;2023-12-20T03:23:40;7.20;83.20
78619;DHT22;67941;52.506;5.470;2023-12-20T03:26:09;7.10;83.10
78619;DHT22;67941;52.506;5.470;2023-12-20T03:28:38;7.00;83.10
78619;DHT22;67941;52.506;5.470;2023-12-20T03:31:09;7.00;83.00
78619;DHT22;67941;52.506;5.470;2023-12-20T03:33:38;6.90;83.20
78619;DHT22;67941;52.506;5.470;2023-12-20T03:36:07;6.90;83.30
78619;DHT22;67941;52.506;5.470;2023-12-20T03:38:36;6.90;83.50
78619;DHT22;67941;52.506;5.470;2023-12-20T03:41:06;6.90;83.50
78619;DHT22;67941;52.506;5.470;2023-12-20T03:43:35;6.90;83.60
78619;DHT22;67941;52.506;5.470;2023-12-20T03:46:04;7.00;83.70
78619;DHT22;67941;52.506;5.470;2023-12-20T03:48:35;7.00;83.80
78619;DHT22;67941;52.506;5.470;2023-12-20T03:51:04;7.10;83.80
78619;DHT22;67941;52.506;5.470;2023-12-20T03:53:33;7.20;83.60
78619;DHT22;67941;52.506;5.470;2023-12-20T03:56:02;7.20;83.30
78619;DHT22;67941;52.506;5.470;2023-12-20T03:58:31;7.10;83.10
78619;DHT22;67941;52.506;5.470;2023-12-20T04:01:00;7.00;83.00
78619;DHT22;67941;52.506;5.470;2023-12-20T04:03:29;7.00;83.20
78619;DHT22;67941;52.506;5.470;2023-12-20T04:06:00;7.00;83.10
78619;DHT22;67941;52.506;5.470;2023-12-20T04:08:29;7.00;83.00
78619;DHT22;67941;52.506;5.470;2023-12-20T04:10:58;6.90;82.90
78619;DHT22;67941;52.506;5.470;2023-12-20T04:13:27;6.90;82.90
78619;DHT22;67941;52.506;5.470;2023-12-20T04:15:56;6.80;83.20
78619;DHT22;67941;52.506;5.470;2023-12-20T04:18:24;6.80;83.30
78619;DHT22;67941;52.506;5.470;2023-12-20T04:20:54;6.90;83.50
78619;DHT22;67941;52.506;5.470;2023-12-20T04:23:25;6.90;83.60
78619;DHT22;67941;52.506;5.470;2023-12-20T04:25:54;7.00;83.60
78619;DHT22;67941;52.506;5.470;2023-12-20T04:28:23;7.00;83.70
78619;DHT22;67941;52.506;5.470;2023-12-20T04:30:52;7.10;83.70
78619;DHT22;67941;52.506;5.470;2023-12-20T04:33:21;7.20;83.70
78619;DHT22;67941;52.506;5.470;2023-12-20T04:35:50;7.20;83.50
78619;DHT22;67941;52.506;5.470;2023-12-20T04:38:19;7.20;83.40
78619;DHT22;67941;52.506;5.470;2023-12-20T04:40:50;7.30;83.40
78619;DHT22;67941;52.506;5.470;2023-12-20T04:43:19;7.30;83.40
78619;DHT22;67941;52.506;5.470;2023-12-20T04:45:48;7.40;83.40
78619;DHT22;67941;52.506;5.470;2023-12-20T04:48:17;7.40;83.40
78619;DHT22;67941;52.506;5.470;2023-12-20T04:50:46;7.40;83.40
78619;DHT22;67941;52.506;5.470;2023-12-20T04:53:15;7.40;83.50
78619;DHT22;67941;52.506;5.470;2023-12-20T04:55:44;7.50;83.40
78619;DHT22;67941;52.506;5.470;2023-12-20T04:58:15;7.50;83.40
78619;DHT22;67941;52.506;5.470;2023-12-20T05:00:44;7.50;83.40
78619;DHT22;67941;52.506;5.470;2023-12-20T05:03:13;7.50;83.40
78619;DHT22;67941;52.506;5.470;2023-12-20T05:05:42;7.50;83.30
78619;DHT22;67941;52.506;5.470;2023-12-20T05:08:11;7.60;83.30
78619;DHT22;67941;52.506;5.470;2023-12-20T05:10:39;7.50;83.20
78619;DHT22;67941;52.506;5.470;2023-12-20T05:13:08;7.50;83.20
78619;DHT22;67941;52.506;5.470;2023-12-20T05:15:40;7.50;83.10
78619;DHT22;67941;52.506;5.470;2023-12-20T05:18:09;7.50;83.20
78619;DHT22;67941;52.506;5.470;2023-12-20T05:20:37;7.50;83.20
78619;DHT22;67941;52.506;5.470;2023-12-20T05:23:06;7.50;83.30
78619;DHT22;67941;52.506;5.470;2023-12-20T05:25:35;7.50;83.30
78619;DHT22;67941;52.506;5.470;2023-12-20T05:28:04;7.60;83.20
78619;DHT22;67941;52.506;5.470;2023-12-20T05:30:33;7.60;83.20
78619;DHT22;67941;52.506;5.470;2023-12-20T05:33:05;7.60;83.30
78619;DHT22;67941;52.506;5.470;2023-12-20T05:35:34;7.60;83.20
78619;DHT22;67941;52.506;5.470;2023-12-20T05:38:03;7.70;83.20
78619;DHT22;67941;52.506;5.470;2023-12-20T05:40:32;7.60;83.20
78619;DHT22;67941;52.506;5.470;2023-12-20T05:43:00;7.70;83.10
78619;DHT22;67941;52.506;5.470;2023-12-20T05:45:29;7.70;83.00
78619;DHT22;67941;52.506;5.470;2023-12-20T05:47:58;7.80;83.00
78619;DHT22;67941;52.506;5.470;2023-12-20T05:50:31;7.80;83.00
78619;DHT22;67941;52.506;5.470;2023-12-20T05:53:03;7.80;83.00
78619;DHT22;67941;52.506;5.470;2023-12-20T05:55:32;7.80;82.90
78619;DHT22;67941;52.506;5.470;2023-12-20T05:58:01;7.80;82.90
78619;DHT22;67941;52.506;5.470;2023-12-20T06:00:31;7.80;82.90
78619;DHT22;67941;52.506;5.470;2023-12-20T06:03:00;7.80;82.90
78619;DHT22;67941;52.506;5.470;2023-12-20T06:05:34;7.80;82.90
78619;DHT22;67941;52.506;5.470;2023-12-20T06:08:22;7.80;82.90
78619;DHT22;67941;52.506;5.470;2023-12-20T06:10:51;7.80;82.90
78619;DHT22;67941;52.506;5.470;2023-12-20T06:13:20;7.80;82.90
78619;DHT22;67941;52.506;5.470;2023-12-20T06:15:49;7.80;82.90
78619;DHT22;67941;52.506;5.470;2023-12-20T06:18:20;7.80;82.90
78619;DHT22;67941;52.506;5.470;2023-12-20T06:20:51;7.90;82.80
78619;DHT22;67941;52.506;5.470;2023-12-20T06:23:21;7.90;82.80
78619;DHT22;67941;52.506;5.470;2023-12-20T06:25:50;7.90;82.90
78619;DHT22;67941;52.506;5.470;2023-12-20T06:28:18;7.90;82.80
78619;DHT22;67941;52.506;5.470;2023-12-20T06:30:47;8.00;82.80
78619;DHT22;67941;52.506;5.470;2023-12-20T06:33:18;8.00;82.80
78619;DHT22;67941;52.506;5.470;2023-12-20T06:35:52;8.00;82.80
78619;DHT22;67941;52.506;5.470;2023-12-20T06:38:21;8.00;82.80
78619;DHT22;67941;52.506;5.470;2023-12-20T06:40:52;8.00;82.80
78619;DHT22;67941;52.506;5.470;2023-12-20T06:43:23;8.00;82.70
78619;DHT22;67941;52.506;5.470;2023-12-20T06:45:52;8.00;82.70
78619;DHT22;67941;52.506;5.470;2023-12-20T06:48:21;8.00;82.70
78619;DHT22;67941;52.506;5.470;2023-12-20T06:50:55;8.00;82.60
78619;DHT22;67941;52.506;5.470;2023-12-20T06:53:24;8.00;82.60
78619;DHT22;67941;52.506;5.470;2023-12-20T06:55:53;8.00;82.60
78619;DHT22;67941;52.506;5.470;2023-12-20T06:58:22;8.00;82.60
78619;DHT22;67941;52.506;5.470;2023-12-20T07:00:51;8.00;82.60
78619;DHT22;67941;52.506;5.470;2023-12-20T07:03:20;8.00;82.60
78619;DHT22;67941;52.506;5.470;2023-12-20T07:05:54;8.00;82.60
78619;DHT22;67941;52.506;5.470;2023-12-20T07:08:23;8.00;82.50
78619;DHT22;67941;52.506;5.470;2023-12-20T07:10:55;8.00;82.50
78619;DHT22;67941;52.506;5.470;2023-12-20T07:13:23;8.00;82.40
78619;DHT22;67941;52.506;5.470;2023-12-20T07:15:52;8.00;82.20
78619;DHT22;67941;52.506;5.470;2023-12-20T07:18:23;8.00;82.00
78619;DHT22;67941;52.506;5.470;2023-12-20T07:20:54;7.90;82.10
78619;DHT22;67941;52.506;5.470;2023-12-20T07:23:23;7.80;82.10
78619;DHT22;67941;52.506;5.470;2023-12-20T07:25:52;7.80;82.30
78619;DHT22;67941;52.506;5.470;2023-12-20T07:28:21;7.80;82.40
78619;DHT22;67941;52.506;5.470;2023-12-20T07:30:50;7.80;82.40
78619;DHT22;67941;52.506;5.470;2023-12-20T07:33:21;7.80;82.50
78619;DHT22;67941;52.506;5.470;2023-12-20T07:35:50;7.90;82.40
78619;DHT22;67941;52.506;5.470;2023-12-20T07:38:22;8.00;82.40
78619;DHT22;67941;52.506;5.470;2023-12-20T07:40:51;8.00;82.40
78619;DHT22;67941;52.506;5.470;2023-12-20T07:43:20;8.00;82.40
78619;DHT22;67941;52.506;5.470;2023-12-20T07:45:50;8.00;82.40
78619;DHT22;67941;52.506;5.470;2023-12-20T07:48:19;8.10;82.30
78619;DHT22;67941;52.506;5.470;2023-12-20T07:50:48;8.10;82.30
78619;DHT22;67941;52.506;5.470;2023-12-20T07:53:22;8.10;82.30
78619;DHT22;67941;52.506;5.470;2023-12-20T07:55:51;8.10;82.20
78619;DHT22;67941;52.506;5.470;2023-12-20T07:58:22;8.20;82.20
78619;DHT22;67941;52.506;5.470;2023-12-20T08:00:52;8.20;82.20
78619;DHT22;67941;52.506;5.470;2023-12-20T08:03:21;8.20;82.20
78619;DHT22;67941;52.506;5.470;2023-12-20T08:05:51;8.20;82.10
78619;DHT22;67941;52.506;5.470;2023-12-20T08:08:22;8.20;82.00
78619;DHT22;67941;52.506;5.470;2023-12-20T08:10:51;8.20;82.00
78619;DHT22;67941;52.506;5.470;2023-12-20T08:13:20;8.30;82.00
78619;DHT22;67941;52.506;5.470;2023-12-20T08:15:52;8.30;82.00
78619;DHT22;67941;52.506;5.470;2023-12-20T08:18:22;8.20;82.00
78619;DHT22;67941;52.506;5.470;2023-12-20T08:20:51;8.30;81.90
78619;DHT22;67941;52.506;5.470;2023-12-20T08:23:23;8.30;81.90
78619;DHT22;67941;52.506;5.470;2023-12-20T08:25:53;8.30;81.90
78619;DHT22;67941;52.506;5.470;2023-12-20T08:28:21;8.30;81.90
78619;DHT22;67941;52.506;5.470;2023-12-20T08:30:51;8.30;81.90
78619;DHT22;67941;52.506;5.470;2023-12-20T08:33:22;8.30;81.90
78619;DHT22;67941;52.506;5.470;2023-12-20T08:35:51;8.30;81.80
78619;DHT22;67941;52.506;5.470;2023-12-20T08:38:22;8.40;81.80
78619;DHT22;67941;52.506;5.470;2023-12-20T08:40:51;8.40;81.80
78619;DHT22;67941;52.506;5.470;2023-12-20T08:43:20;8.40;81.70
78619;DHT22;67941;52.506;5.470;2023-12-20T08:45:49;8.40;81.60
78619;DHT22;67941;52.506;5.470;2023-12-20T08:48:20;8.40;81.60
78619;DHT22;67941;52.506;5.470;2023-12-20T08:50:49;8.40;81.60
78619;DHT22;67941;52.506;5.470;2023-12-20T08:53:18;8.40;81.60
78619;DHT22;67941;52.506;5.470;2023-12-20T08:55:49;8.50;81.60
78619;DHT22;67941;52.506;5.470;2023-12-20T08:58:18;8.50;81.60
78619;DHT22;67941;52.506;5.470;2023-12-20T09:00:48;8.50;81.50
78619;DHT22;67941;52.506;5.470;2023-12-20T09:03:16;8.50;81.60
78619;DHT22;67941;52.506;5.470;2023-12-20T09:05:45;8.60;81.60
78619;DHT22;67941;52.506;5.470;2023-12-20T09:08:14;8.60;81.50
78619;DHT22;67941;52.506;5.470;2023-12-20T09:10:44;8.60;81.60
78619;DHT22;67941;52.506;5.470;2023-12-20T09:13:15;8.60;81.50
78619;DHT22;67941;52.506;5.470;2023-12-20T09:15:44;8.60;81.40
78619;DHT22;67941;52.506;5.470;2023-12-20T09:18:13;8.60;81.40
78619;DHT22;67941;52.506;5.470;2023-12-20T09:20:42;8.60;81.30
78619;DHT22;67941;52.506;5.470;2023-12-20T09:23:11;8.60;81.20
78619;DHT22;67941;52.506;5.470;2023-12-20T09:25:40;8.60;81.00
78619;DHT22;67941;52.506;5.470;2023-12-20T09:28:10;8.60;81.00
78619;DHT22;67941;52.506;5.470;2023-12-20T09:30:42;8.50;81.10
78619;DHT22;67941;52.506;5.470;2023-12-20T09:33:12;8.50;81.10
78619;DHT22;67941;52.506;5.470;2023-12-20T09:35:42;8.40;81.10
78619;DHT22;67941;52.506;5.470;2023-12-20T09:38:11;8.40;81.20
78619;DHT22;67941;52.506;5.470;2023-12-20T09:40:42;8.40;81.20
78619;DHT22;67941;52.506;5.470;2023-12-20T09:43:13;8.40;81.10
78619;DHT22;67941;52.506;5.470;2023-12-20T09:45:47;8.30;81.10
78619;DHT22;67941;52.506;5.470;2023-12-20T09:48:18;8.30;81.10
78619;DHT22;67941;52.506;5.470;2023-12-20T09:50:48;8.30;81.20
78619;DHT22;67941;52.506;5.470;2023-12-20T09:53:18;8.40;81.50
78619;DHT22;67941;52.506;5.470;2023-12-20T09:55:49;8.40;81.60
78619;DHT22;67941;52.506;5.470;2023-12-20T09:58:18;8.50;81.50
78619;DHT22;67941;52.506;5.470;2023-12-20T10:00:49;8.60;81.40
78619;DHT22;67941;52.506;5.470;2023-12-20T10:03:23;8.60;81.30
78619;DHT22;67941;52.506;5.470;2023-12-20T10:05:54;8.60;81.20
78619;DHT22;67941;52.506;5.470;2023-12-20T10:08:25;8.60;81.30
78619;DHT22;67941;52.506;5.470;2023-12-20T10:10:55;8.60;81.30
78619;DHT22;67941;52.506;5.470;2023-12-20T10:13:28;8.70;81.40
78619;DHT22;67941;52.506;5.470;2023-12-20T10:16:00;8.80;81.50
78619;DHT22;67941;52.506;5.470;2023-12-20T10:18:29;8.80;81.50
78619;DHT22;67941;52.506;5.470;2023-12-20T10:20:58;8.90;81.40
78619;DHT22;67941;52.506;5.470;2023-12-20T10:23:27;8.90;81.50
78619;DHT22;67941;52.506;5.470;2023-12-20T10:25:56;9.00;81.50
78619;DHT22;67941;52.506;5.470;2023-12-20T10:28:26;9.00;81.50
78619;DHT22;67941;52.506;5.470;2023-12-20T10:30:55;9.10;81.40
78619;DHT22;67941;52.506;5.470;2023-12-20T10:33:28;9.20;81.30
78619;DHT22;67941;52.506;5.470;2023-12-20T10:35:58;9.20;81.20
78619;DHT22;67941;52.506;5.470;2023-12-20T10:38:26;9.20;81.00
78619;DHT22;67941;52.506;5.470;2023-12-20T10:40:57;9.20;81.00
78619;DHT22;67941;52.506;5.470;2023-12-20T10:43:28;9.20;81.00
78619;DHT22;67941;52.506;5.470;2023-12-20T10:45:59;9.20;81.20
78619;DHT22;67941;52.506;5.470;2023-12-20T10:48:30;9.30;81.20
78619;DHT22;67941;52.506;5.470;2023-12-20T10:51:01;9.30;81.10
78619;DHT22;67941;52.506;5.470;2023-12-20T10:53:49;9.40;81.00
78619;DHT22;67941;52.506;5.470;2023-12-20T10:56:18;9.40;80.80
78619;DHT22;67941;52.506;5.470;2023-12-20T10:58:50;9.40;80.80
78619;DHT22;67941;52.506;5.470;2023-12-20T11:01:19;9.40;80.80
78619;DHT22;67941;52.506;5.470;2023-12-20T11:03:53;9.50;80.60
78619;DHT22;67941;52.506;5.470;2023-12-20T11:06:31;9.50;80.50
78619;DHT22;67941;52.506;5.470;2023-12-20T11:09:08;9.40;80.50
78619;DHT22;67941;52.506;5.470;2023-12-20T11:11:51;9.40;80.50
78619;DHT22;67941;52.506;5.470;2023-12-20T11:14:25;9.40;80.50
78619;DHT22;67941;52.506;5.470;2023-12-20T11:17:06;9.40;80.50
78619;DHT22;67941;52.506;5.470;2023-12-20T11:22:31;9.40;80.60
78619;DHT22;67941;52.506;5.470;2023-12-20T11:25:04;9.50;80.70
78619;DHT22;67941;52.506;5.470;2023-12-20T11:27:34;9.50;80.60
78619;DHT22;67941;52.506;5.470;2023-12-20T11:30:05;9.60;80.30
78619;DHT22;67941;52.506;5.470;2023-12-20T11:32:36;9.50;80.20
78619;DHT22;67941;52.506;5.470;2023-12-20T11:35:25;9.60;80.20
78619;DHT22;67941;52.506;5.470;2023-12-20T11:37:54;9.50;80.10
78619;DHT22;67941;52.506;5.470;2023-12-20T11:40:23;9.50;80.10
78619;DHT22;67941;52.506;5.470;2023-12-20T11:42:52;9.50;80.10
78619;DHT22;67941;52.506;5.470;2023-12-20T11:45:24;9.40;80.10
78619;DHT22;67941;52.506;5.470;2023-12-20T11:47:53;9.40;80.10
78619;DHT22;67941;52.506;5.470;2023-12-20T11:50:26;9.40;80.10
78619;DHT22;67941;52.506;5.470;2023-12-20T11:53:14;9.40;80.10
78619;DHT22;67941;52.506;5.470;2023-12-20T11:55:47;9.40;80.00
78619;DHT22;67941;52.506;5.470;2023-12-20T11:58:16;9.40;80.00
78619;DHT22;67941;52.506;5.470;2023-12-20T12:00:45;9.40;80.00
78619;DHT22;67941;52.506;5.470;2023-12-20T12:03:15;9.30;80.10
78619;DHT22;67941;52.506;5.470;2023-12-20T12:05:47;9.30;80.10
78619;DHT22;67941;52.506;5.470;2023-12-20T12:08:17;9.40;80.00
78619;DHT22;67941;52.506;5.470;2023-12-20T12:10:46;9.40;80.00
78619;DHT22;67941;52.506;5.470;2023-12-20T12:13:14;9.40;80.00
78619;DHT22;67941;52.506;5.470;2023-12-20T12:15:43;9.40;80.00
78619;DHT22;67941;52.506;5.470;2023-12-20T12:18:15;9.40;80.00
78619;DHT22;67941;52.506;5.470;2023-12-20T12:20:47;9.40;80.00
78619;DHT22;67941;52.506;5.470;2023-12-20T12:23:23;9.40;80.00
78619;DHT22;67941;52.506;5.470;2023-12-20T12:25:53;9.40;80.00
78619;DHT22;67941;52.506;5.470;2023-12-20T12:28:26;9.40;80.00
78619;DHT22;67941;52.506;5.470;2023-12-20T12:30:57;9.40;79.80
78619;DHT22;67941;52.506;5.470;2023-12-20T12:33:27;9.40;79.80
78619;DHT22;67941;52.506;5.470;2023-12-20T12:35:59;9.30;79.90
78619;DHT22;67941;52.506;5.470;2023-12-20T12:38:30;9.30;80.00
78619;DHT22;67941;52.506;5.470;2023-12-20T12:41:00;9.30;80.00
78619;DHT22;67941;52.506;5.470;2023-12-20T12:43:28;9.30;80.10
78619;DHT22;67941;52.506;5.470;2023-12-20T12:45:57;9.40;80.00
78619;DHT22;67941;52.506;5.470;2023-12-20T12:48:26;9.40;80.00
78619;DHT22;67941;52.506;5.470;2023-12-20T12:50:58;9.40;80.00
78619;DHT22;67941;52.506;5.470;2023-12-20T12:53:27;9.40;79.80
78619;DHT22;67941;52.506;5.470;2023-12-20T12:55:56;9.40;79.90
78619;DHT22;67941;52.506;5.470;2023-12-20T12:58:25;9.40;79.90
78619;DHT22;67941;52.506;5.470;2023-12-20T13:00:54;9.40;79.90
78619;DHT22;67941;52.506;5.470;2023-12-20T13:03:23;9.40;79.80
78619;DHT22;67941;52.506;5.470;2023-12-20T13:05:52;9.40;79.90
78619;DHT22;67941;52.506;5.470;2023-12-20T13:08:23;9.40;79.80
78619;DHT22;67941;52.506;5.470;2023-12-20T13:10:52;9.40;79.70
78619;DHT22;67941;52.506;5.470;2023-12-20T13:13:21;9.40;79.70
78619;DHT22;67941;52.506;5.470;2023-12-20T13:15:50;9.40;79.70
78619;DHT22;67941;52.506;5.470;2023-12-20T13:18:20;9.40;79.70
78619;DHT22;67941;52.506;5.470;2023-12-20T13:20:49;9.40;79.70
78619;DHT22;67941;52.506;5.470;2023-12-20T13:23:18;9.40;79.70
78619;DHT22;67941;52.506;5.470;2023-12-20T13:25:50;9.40;79.70
78619;DHT22;67941;52.506;5.470;2023-12-20T13:28:19;9.40;79.70
78619;DHT22;67941;52.506;5.470;2023-12-20T13:30:48;9.40;79.70
78619;DHT22;67941;52.506;5.470;2023-12-20T13:33:17;9.30;79.70
78619;DHT22;67941;52.506;5.470;2023-12-20T13:35:45;9.30;79.70
78619;DHT22;67941;52.506;5.470;2023-12-20T13:38:14;9.30;79.60
78619;DHT22;67941;52.506;5.470;2023-12-20T13:40:43;9.30;79.60
78619;DHT22;67941;52.506;5.470;2023-12-20T13:43:15;9.30;79.70
78619;DHT22;67941;52.506;5.470;2023-12-20T13:45:46;9.30;79.70
78619;DHT22;67941;52.506;5.470;2023-12-20T13:48:15;9.30;79.70
78619;DHT22;67941;52.506;5.470;2023-12-20T13:50:44;9.30;79.60
78619;DHT22;67941;52.506;5.470;2023-12-20T13:53:13;9.30;79.60
78619;DHT22;67941;52.506;5.470;2023-12-20T13:55:42;9.20;79.60
78619;DHT22;67941;52.506;5.470;2023-12-20T13:58:10;9.30;79.60
78619;DHT22;67941;52.506;5.470;2023-12-20T14:00:42;9.20;79.50
78619;DHT22;67941;52.506;5.470;2023-12-20T14:03:11;9.20;79.50
78619;DHT22;67941;52.506;5.470;2023-12-20T14:05:40;9.20;79.50
78619;DHT22;67941;52.506;5.470;2023-12-20T14:08:09;9.20;79.50
78619;DHT22;67941;52.506;5.470;2023-12-20T14:10:38;9.20;79.50
78619;DHT22;67941;52.506;5.470;2023-12-20T14:13:06;9.20;79.60
78619;DHT22;67941;52.506;5.470;2023-12-20T14:15:35;9.20;79.60
78619;DHT22;67941;52.506;5.470;2023-12-20T14:18:07;9.20;79.60
78619;DHT22;67941;52.506;5.470;2023-12-20T14:20:38;9.20;79.50
78619;DHT22;67941;52.506;5.470;2023-12-20T14:23:08;9.20;79.50
78619;DHT22;67941;52.506;5.470;2023-12-20T14:25:38;9.20;79.50
78619;DHT22;67941;52.506;5.470;2023-12-20T14:28:07;9.20;79.50
78619;DHT22;67941;52.506;5.470;2023-12-20T14:30:39;9.20;79.50
78619;DHT22;67941;52.506;5.470;2023-12-20T14:33:11;9.20;79.40
78619;DHT22;67941;52.506;5.470;2023-12-20T14:35:39;9.20;79.40
78619;DHT22;67941;52.506;5.470;2023-12-20T14:38:10;9.20;79.40
78619;DHT22;67941;52.506;5.470;2023-12-20T14:40:40;9.20;79.40
78619;DHT22;67941;52.506;5.470;2023-12-20T14:43:09;9.10;79.40
78619;DHT22;67941;52.506;5.470;2023-12-20T14:45:38;9.10;79.40
78619;DHT22;67941;52.506;5.470;2023-12-20T14:48:10;9.10;79.40
78619;DHT22;67941;52.506;5.470;2023-12-20T14:50:39;9.20;79.40
78619;DHT22;67941;52.506;5.470;2023-12-20T14:53:09;9.10;79.50
78619;DHT22;67941;52.506;5.470;2023-12-20T14:55:38;9.20;79.40
78619;DHT22;67941;52.506;5.470;2023-12-20T14:58:07;9.20;79.50
78619;DHT22;67941;52.506;5.470;2023-12-20T15:00:36;9.20;79.50
78619;DHT22;67941;52.506;5.470;2023-12-20T15:03:05;9.20;79.50
78619;DHT22;67941;52.506;5.470;2023-12-20T15:05:36;9.20;79.50
78619;DHT22;67941;52.506;5.470;2023-12-20T15:08:06;9.10;79.50
78619;DHT22;67941;52.506;5.470;2023-12-20T15:10:36;9.20;79.50
78619;DHT22;67941;52.506;5.470;2023-12-20T15:13:05;9.20;79.50
78619;DHT22;67941;52.506;5.470;2023-12-20T15:15:34;9.10;79.50
78619;DHT22;67941;52.506;5.470;2023-12-20T15:18:04;9.10;79.50
78619;DHT22;67941;52.506;5.470;2023-12-20T15:20:36;9.10;79.50
78619;DHT22;67941;52.506;5.470;2023-12-20T15:23:05;9.10;79.50
78619;DHT22;67941;52.506;5.470;2023-12-20T15:25:34;9.10;79.60
78619;DHT22;67941;52.506;5.470;2023-12-20T15:28:03;9.10;79.60
78619;DHT22;67941;52.506;5.470;2023-12-20T15:30:32;9.10;79.60
78619;DHT22;67941;52.506;5.470;2023-12-20T15:33:02;9.10;79.60
78619;DHT22;67941;52.506;5.470;2023-12-20T15:35:31;9.10;79.50
78619;DHT22;67941;52.506;5.470;2023-12-20T15:38:03;9.00;79.50
78619;DHT22;67941;52.506;5.470;2023-12-20T15:40:31;9.00;79.60
78619;DHT22;67941;52.506;5.470;2023-12-20T15:43:00;9.00;79.50
78619;DHT22;67941;52.506;5.470;2023-12-20T15:45:29;9.00;79.60
78619;DHT22;67941;52.506;5.470;2023-12-20T15:47:59;9.00;79.60
78619;DHT22;67941;52.506;5.470;2023-12-20T15:50:28;9.00;79.70
78619;DHT22;67941;52.506;5.470;2023-12-20T15:52:56;9.00;79.60
78619;DHT22;67941;52.506;5.470;2023-12-20T15:55:28;9.00;79.70
78619;DHT22;67941;52.506;5.470;2023-12-20T15:57:57;9.00;79.70
78619;DHT22;67941;52.506;5.470;2023-12-20T16:00:26;9.00;79.70
78619;DHT22;67941;52.506;5.470;2023-12-20T16:02:56;9.00;79.70
78619;DHT22;67941;52.506;5.470;2023-12-20T16:05:25;9.00;79.70
78619;DHT22;67941;52.506;5.470;2023-12-20T16:07:54;9.00;79.60